Time;durP1;ratioP1;P1;durP2;ratioP2;P2;SDS_P1;SDS_P2;PMS_P1;PMS_P2;Temp;Humidity;BMP_temperature;BMP_pressure;BME280_temperature;BME280_humidity;BME280_pressure;Samples;Min_cycle;Max_cycle;Signal;HPM_P1;HPM_P2
2022/03/12 00:02:24;;;;;;;9.13;4.38;;;0.60;56.10;;;;;;5088940;28;20020;-81
2022/03/12 00:04:50;;;;;;;8.63;5.00;;;0.70;56.20;;;;;;5090295;28;20024;-81
2022/03/12 00:07:16;;;;;;;8.13;4.40;;;0.60;56.10;;;;;;5084571;28;20097;-80
2022/03/12 00:09:43;;;;;;;9.05;4.30;;;0.60;56.00;;;;;;5089367;28;20024;-80
2022/03/12 00:12:12;;;;;;;11.00;4.88;;;0.50;56.00;;;;;;5090894;28;20021;-81
2022/03/12 00:14:37;;;;;;;10.65;4.60;;;0.50;56.00;;;;;;5085349;28;20032;-78
2022/03/12 00:17:03;;;;;;;11.13;4.63;;;0.50;56.10;;;;;;5088989;28;20070;-80
2022/03/12 00:19:31;;;;;;;9.82;5.40;;;0.40;56.30;;;;;;5088707;28;20029;-80
2022/03/12 00:21:57;;;;;;;7.32;4.72;;;0.40;56.20;;;;;;5086018;28;20028;-81
2022/03/12 00:24:24;;;;;;;9.00;4.85;;;0.40;56.30;;;;;;5087683;28;20082;-81
2022/03/12 00:26:50;;;;;;;9.52;4.72;;;0.40;56.40;;;;;;5089219;28;20038;-81
2022/03/12 00:29:16;;;;;;;9.35;4.40;;;0.30;56.30;;;;;;5083270;28;20076;-79
2022/03/12 00:31:47;;;;;;;6.00;4.18;;;0.30;56.50;;;;;;5088342;28;20444;-80
2022/03/12 00:34:13;;;;;;;7.57;4.18;;;0.30;56.60;;;;;;5088637;28;20090;-80
2022/03/12 00:36:39;;;;;;;8.52;4.78;;;0.30;56.80;;;;;;5083658;28;20042;-80
2022/03/12 00:39:09;;;;;;;7.32;3.92;;;0.30;56.80;;;;;;5088412;28;20071;-81
2022/03/12 00:41:38;;;;;;;7.53;3.88;;;0.30;56.80;;;;;;5089940;28;20080;-80
2022/03/12 00:44:08;;;;;;;9.38;4.60;;;0.30;56.90;;;;;;5084742;28;20028;-80
2022/03/12 00:46:34;;;;;;;7.93;3.70;;;0.30;57.00;;;;;;5087937;28;20024;-82
2022/03/12 00:48:59;;;;;;;8.90;4.75;;;0.20;57.00;;;;;;5086437;28;20046;-81
2022/03/12 00:51:25;;;;;;;9.05;4.93;;;0.20;57.20;;;;;;5086001;28;20028;-78
2022/03/12 00:53:51;;;;;;;8.30;4.95;;;0.10;57.20;;;;;;5088186;28;20044;-80
2022/03/12 00:56:17;;;;;;;8.02;4.70;;;0.10;57.30;;;;;;5087298;28;20036;-80
2022/03/12 00:58:45;;;;;;;7.47;4.20;;;0.10;57.40;;;;;;5084751;28;20051;-81
2022/03/12 01:01:12;;;;;;;8.05;4.63;;;0.00;57.40;;;;;;5086402;28;20061;-81
2022/03/12 01:03:38;;;;;;;7.60;4.38;;;0.00;57.50;;;;;;5082640;28;20119;-81
2022/03/12 01:06:05;;;;;;;8.10;4.07;;;0.00;57.70;;;;;;5085596;28;20036;-81
2022/03/12 01:08:32;;;;;;;8.05;3.95;;;0.00;57.80;;;;;;5087614;28;20031;-79
2022/03/12 01:11:00;;;;;;;10.77;4.47;;;-0.10;57.70;;;;;;5086972;28;20074;-82
2022/03/12 01:13:28;;;;;;;6.50;3.97;;;-0.10;57.80;;;;;;5084980;28;20076;-81
2022/03/12 01:15:54;;;;;;;7.93;4.30;;;-0.10;57.80;;;;;;5087502;28;20023;-80
2022/03/12 01:18:21;;;;;;;10.60;4.50;;;-0.10;57.80;;;;;;5088504;28;20020;-81
2022/03/12 01:20:48;;;;;;;6.45;3.67;;;-0.20;57.80;;;;;;5083778;28;20055;-78
2022/03/12 01:23:17;;;;;;;8.32;4.40;;;-0.20;57.90;;;;;;5087824;28;20024;-79
2022/03/12 01:25:45;;;;;;;6.75;3.83;;;-0.20;58.10;;;;;;5087688;28;20030;-79
2022/03/12 01:28:13;;;;;;;7.68;3.83;;;-0.20;58.30;;;;;;5082642;28;20055;-80
2022/03/12 01:30:41;;;;;;;7.72;3.78;;;-0.10;58.40;;;;;;5088946;28;20469;-81
2022/03/12 01:33:07;;;;;;;6.30;3.80;;;-0.10;58.50;;;;;;5087586;28;20012;-83
2022/03/12 01:35:34;;;;;;;7.07;4.20;;;0.00;58.40;;;;;;5081962;28;20020;-80
2022/03/12 01:38:01;;;;;;;7.13;4.32;;;-0.10;58.20;;;;;;5086851;28;20058;-81
2022/03/12 01:40:28;;;;;;;6.57;3.72;;;-0.10;58.20;;;;;;5085823;28;20058;-80
2022/03/12 01:42:54;;;;;;;7.53;4.38;;;-0.10;58.30;;;;;;5084100;28;20032;-79
2022/03/12 01:45:26;;;;;;;9.05;4.72;;;-0.20;58.40;;;;;;5101194;28;20050;-81
2022/03/12 01:47:55;;;;;;;9.48;4.05;;;-0.20;58.40;;;;;;5086120;28;20036;-80
2022/03/12 01:50:23;;;;;;;10.25;4.43;;;-0.20;58.40;;;;;;5085027;28;20016;-81
2022/03/12 01:52:49;;;;;;;9.07;4.90;;;-0.20;58.60;;;;;;5087151;28;20031;-80
2022/03/12 01:55:15;;;;;;;9.30;4.57;;;-0.20;58.80;;;;;;5087680;28;20025;-79
2022/03/12 01:57:42;;;;;;;9.55;4.60;;;-0.30;58.70;;;;;;5085609;28;20072;-81
2022/03/12 02:00:22;;;;;;;7.95;4.10;;;-0.30;58.80;;;;;;5085646;28;20670;-81
2022/03/12 02:02:53;;;;;;;6.90;4.13;;;-0.30;59.60;;;;;;5087779;28;20024;-80
2022/03/12 02:05:25;;;;;;;5.90;3.78;;;-0.30;59.20;;;;;;5084027;28;20032;-81
2022/03/12 02:07:51;;;;;;;6.87;4.17;;;-0.30;59.20;;;;;;5088013;28;20031;-81
2022/03/12 02:10:20;;;;;;;8.68;4.70;;;-0.40;59.00;;;;;;5087975;28;20016;-81
2022/03/12 02:12:46;;;;;;;7.43;3.97;;;-0.40;59.10;;;;;;5083322;28;20025;-80
2022/03/12 02:15:12;;;;;;;8.98;4.85;;;-0.40;59.10;;;;;;5087426;28;20035;-81
2022/03/12 02:17:38;;;;;;;9.63;5.05;;;-0.40;59.20;;;;;;5089701;28;20060;-80
2022/03/12 02:20:05;;;;;;;8.70;5.07;;;-0.40;59.20;;;;;;5088020;28;20437;-80
2022/03/12 02:22:32;;;;;;;8.95;3.83;;;-0.40;59.20;;;;;;5088033;28;20084;-80
2022/03/12 02:24:58;;;;;;;10.50;4.60;;;-0.50;59.30;;;;;;5089199;28;20032;-82
2022/03/12 02:27:26;;;;;;;7.57;4.07;;;-0.40;59.40;;;;;;5087079;28;20081;-80
2022/03/12 02:29:52;;;;;;;11.90;4.25;;;-0.50;59.40;;;;;;5086835;22;20052;-80
2022/03/12 02:32:18;;;;;;;6.93;4.15;;;-0.50;59.50;;;;;;5038397;28;20032;-80
2022/03/12 02:34:46;;;;;;;6.82;3.85;;;-0.50;59.70;;;;;;5020785;28;20124;-80
2022/03/12 02:37:20;;;;;;;5.93;3.55;;;-0.40;59.80;;;;;;5037993;28;20025;-80
2022/03/12 02:39:45;;;;;;;9.05;4.90;;;-0.40;59.80;;;;;;5038455;28;20101;-82
2022/03/12 02:42:12;;;;;;;6.93;4.22;;;-0.40;59.60;;;;;;5037201;28;20045;-81
2022/03/12 02:44:37;;;;;;;6.38;3.90;;;-0.40;59.60;;;;;;5038144;28;20079;-82
2022/03/12 02:47:28;;;;;;;6.68;4.05;;;-0.40;59.40;;;;;;5039415;28;20424;-82
2022/03/12 02:49:58;;;;;;;8.05;4.25;;;-0.40;59.30;;;;;;5039019;28;20458;-81
2022/03/12 02:52:27;;;;;;;8.50;4.00;;;-0.40;59.40;;;;;;5038101;28;20113;-80
2022/03/12 02:54:57;;;;;;;7.00;3.97;;;-0.40;59.40;;;;;;5036043;28;20022;-81
2022/03/12 02:57:24;;;;;;;6.68;4.05;;;-0.30;59.40;;;;;;5038385;28;20408;-81
2022/03/12 02:59:52;;;;;;;8.10;4.38;;;-0.30;59.40;;;;;;5021870;28;20382;-81
2022/03/12 03:02:31;;;;;;;5.78;3.17;;;-0.20;59.30;;;;;;5038982;28;20032;-81
2022/03/12 03:04:57;;;;;;;6.47;3.65;;;-0.30;59.10;;;;;;5039051;28;20033;-80
2022/03/12 03:07:24;;;;;;;8.63;4.63;;;-0.30;59.00;;;;;;5038376;28;20022;-81
2022/03/12 03:09:50;;;;;;;5.40;3.58;;;-0.30;58.90;;;;;;5037734;28;20411;-82
2022/03/12 03:12:18;;;;;;;7.15;3.75;;;-0.30;59.10;;;;;;5037943;28;20033;-83
2022/03/12 03:14:48;;;;;;;6.57;3.90;;;-0.30;59.20;;;;;;5038194;28;20632;-82
2022/03/12 03:17:16;;;;;;;8.00;5.05;;;-0.30;59.60;;;;;;5036211;28;20025;-81
2022/03/12 03:19:42;;;;;;;8.40;4.05;;;-0.30;59.50;;;;;;5036790;28;20036;-82
2022/03/12 03:22:08;;;;;;;6.45;3.70;;;-0.30;59.60;;;;;;5036397;28;20059;-82
2022/03/12 03:24:35;;;;;;;7.80;3.90;;;-0.30;59.70;;;;;;5038135;28;20060;-82
2022/03/12 03:27:02;;;;;;;9.52;4.43;;;-0.30;59.70;;;;;;5037453;28;20033;-81
2022/03/12 03:29:33;;;;;;;9.77;4.82;;;-0.30;59.70;;;;;;5037825;28;20033;-83
2022/03/12 03:32:01;;;;;;;7.80;4.63;;;-0.30;59.80;;;;;;5031279;28;20196;-82
2022/03/12 03:34:28;;;;;;;10.23;4.75;;;-0.40;59.90;;;;;;5017960;28;20021;-82
2022/03/12 03:36:55;;;;;;;11.25;4.70;;;-0.40;60.20;;;;;;5024531;28;20033;-81
2022/03/12 03:39:21;;;;;;;9.00;4.85;;;-0.50;60.20;;;;;;5036184;28;20040;-81
2022/03/12 03:41:47;;;;;;;8.75;3.83;;;-0.40;60.70;;;;;;5035417;28;20029;-81
2022/03/12 03:44:13;;;;;;;5.50;3.60;;;-0.40;60.90;;;;;;5037017;28;20514;-79
2022/03/12 03:46:39;;;;;;;6.78;3.42;;;-0.50;60.90;;;;;;5034504;28;20429;-81
2022/03/12 03:49:06;;;;;;;6.20;3.80;;;-0.40;61.80;;;;;;5036354;28;20033;-81
2022/03/12 03:51:37;;;;;;;7.75;4.47;;;-0.50;61.20;;;;;;5037236;28;20086;-80
2022/03/12 03:54:03;;;;;;;8.52;4.35;;;-0.50;61.30;;;;;;5018727;28;20028;-79
2022/03/12 03:56:29;;;;;;;7.78;4.68;;;-0.50;61.50;;;;;;5036183;28;20025;-81
2022/03/12 03:58:55;;;;;;;9.85;4.40;;;-0.50;61.50;;;;;;5051173;28;20021;-80
2022/03/12 04:01:22;;;;;;;9.02;4.80;;;-0.40;61.40;;;;;;5027818;28;20490;-80
2022/03/12 04:03:49;;;;;;;11.20;4.95;;;-0.40;61.30;;;;;;5023486;28;20026;-80
2022/03/12 04:06:20;;;;;;;8.85;4.80;;;-0.40;61.20;;;;;;4999156;28;20455;-81
2022/03/12 04:08:47;;;;;;;8.17;4.57;;;-0.40;61.20;;;;;;5024799;28;20061;-81
2022/03/12 04:11:16;;;;;;;5.25;3.55;;;-0.40;61.10;;;;;;5036306;28;20423;-81
2022/03/12 04:13:42;;;;;;;6.90;4.18;;;-0.30;61.10;;;;;;5020489;28;20031;-80
2022/03/12 04:16:09;;;;;;;9.52;4.70;;;-0.30;61.00;;;;;;5040225;28;20088;-82
2022/03/12 04:18:37;;;;;;;11.10;5.15;;;-0.30;60.80;;;;;;5029407;28;20014;-81
2022/03/12 04:21:05;;;;;;;11.07;4.43;;;-0.30;60.50;;;;;;5040543;28;20033;-82
2022/03/12 04:23:31;;;;;;;7.80;4.25;;;-0.40;60.50;;;;;;5037588;28;20160;-82
2022/03/12 04:25:59;;;;;;;6.85;3.95;;;-0.40;60.40;;;;;;5044965;28;20209;-79
2022/03/12 04:28:29;;;;;;;12.15;4.53;;;-0.40;60.40;;;;;;5050541;28;20032;-82
2022/03/12 04:30:54;;;;;;;8.40;4.50;;;-0.40;60.50;;;;;;5056333;28;20106;-82
2022/03/12 04:33:21;;;;;;;8.23;4.88;;;-0.40;60.40;;;;;;5045440;28;20021;-81
2022/03/12 04:35:49;;;;;;;7.05;4.50;;;-0.40;60.30;;;;;;5036310;28;20022;-80
2022/03/12 04:38:15;;;;;;;11.18;4.85;;;-0.30;60.20;;;;;;5034444;28;20025;-80
2022/03/12 04:40:43;;;;;;;8.73;4.30;;;-0.30;60.20;;;;;;5036615;28;20021;-81
2022/03/12 04:43:11;;;;;;;6.90;4.30;;;-0.30;60.10;;;;;;5042310;28;20052;-81
2022/03/12 04:45:38;;;;;;;12.88;5.03;;;-0.30;60.10;;;;;;5050360;28;20025;-80
2022/03/12 04:48:04;;;;;;;7.68;4.00;;;-0.30;60.10;;;;;;5052230;28;20025;-82
2022/03/12 04:50:31;;;;;;;8.90;4.32;;;-0.30;60.20;;;;;;5042613;28;20110;-81
2022/03/12 04:52:59;;;;;;;10.32;4.95;;;-0.40;60.30;;;;;;5046756;28;20409;-80
2022/03/12 04:55:27;;;;;;;9.75;5.05;;;-0.40;60.50;;;;;;5045091;28;20028;-81
2022/03/12 04:57:53;;;;;;;8.90;4.97;;;-0.40;60.60;;;;;;5036923;28;20427;-81
2022/03/12 05:00:25;;;;;;;8.25;4.47;;;-0.40;60.60;;;;;;5039373;28;20095;-80
2022/03/12 05:02:56;;;;;;;6.35;4.28;;;-0.40;60.60;;;;;;5030753;28;20167;-81
2022/03/12 05:05:22;;;;;;;10.15;4.50;;;-0.40;60.70;;;;;;5016398;28;20022;-81
2022/03/12 05:07:48;;;;;;;6.43;3.95;;;-0.40;60.70;;;;;;5015907;28;20017;-82
2022/03/12 05:10:17;;;;;;;7.97;4.05;;;-0.40;60.70;;;;;;5021482;28;20107;-81
2022/03/12 05:12:48;;;;;;;6.30;4.13;;;-0.40;60.70;;;;;;5040291;28;20025;-82
2022/03/12 05:15:15;;;;;;;5.50;3.80;;;-0.40;60.80;;;;;;5048403;28;20157;-82
2022/03/12 05:17:47;;;;;;;6.25;3.33;;;-0.40;60.80;;;;;;5046390;28;20050;-81
2022/03/12 05:20:20;;;;;;;7.45;4.25;;;-0.40;60.80;;;;;;5048708;28;20013;-81
2022/03/12 05:22:46;;;;;;;9.77;4.53;;;-0.40;60.80;;;;;;5025067;28;20490;-80
2022/03/12 05:25:12;;;;;;;7.90;4.22;;;-0.30;60.60;;;;;;5019269;28;20429;-79
2022/03/12 05:27:38;;;;;;;6.68;3.78;;;-0.40;60.50;;;;;;5035004;28;20026;-82
2022/03/12 05:30:05;;;;;;;8.73;4.68;;;-0.40;60.50;;;;;;5035488;28;20112;-80
2022/03/12 05:32:31;;;;;;;9.70;4.30;;;-0.30;60.40;;;;;;5022050;28;20021;-80
2022/03/12 05:34:56;;;;;;;10.18;4.93;;;-0.30;60.30;;;;;;5039076;28;20124;-81
2022/03/12 05:37:22;;;;;;;7.20;4.18;;;-0.30;60.30;;;;;;5038400;28;20018;-81
2022/03/12 05:39:51;;;;;;;6.95;4.22;;;-0.30;60.10;;;;;;5040648;28;20021;-80
2022/03/12 05:42:20;;;;;;;7.50;4.35;;;-0.30;60.10;;;;;;5040359;28;20029;-81
2022/03/12 05:44:46;;;;;;;7.07;3.85;;;-0.30;60.10;;;;;;5039493;28;20095;-80
2022/03/12 05:47:12;;;;;;;7.78;4.53;;;-0.30;60.10;;;;;;5022103;28;20079;-80
2022/03/12 05:49:38;;;;;;;7.93;4.40;;;-0.40;60.20;;;;;;5038348;28;20029;-80
2022/03/12 05:52:04;;;;;;;7.97;4.72;;;-0.40;60.20;;;;;;5037942;28;20029;-81
2022/03/12 05:54:30;;;;;;;11.20;5.15;;;-0.30;60.30;;;;;;5017768;28;20382;-81
2022/03/12 05:56:56;;;;;;;8.52;4.30;;;-0.30;60.40;;;;;;5017255;28;20036;-81
2022/03/12 05:59:22;;;;;;;10.00;5.78;;;-0.30;60.40;;;;;;5034461;28;20432;-82
2022/03/12 06:01:50;;;;;;;9.27;4.50;;;-0.30;60.60;;;;;;5036972;28;20366;-81
2022/03/12 06:04:25;;;;;;;10.02;4.82;;;-0.30;60.70;;;;;;5039606;28;20026;-79
2022/03/12 06:06:52;;;;;;;10.63;4.03;;;-0.20;60.80;;;;;;5038918;28;20029;-81
2022/03/12 06:09:18;;;;;;;7.80;4.18;;;-0.10;60.80;;;;;;5037718;28;20497;-82
2022/03/12 06:11:45;;;;;;;8.43;4.28;;;0.00;60.60;;;;;;5021351;28;20040;-82
2022/03/12 06:14:16;;;;;;;7.45;3.78;;;0.00;60.40;;;;;;5039738;28;20044;-82
2022/03/12 06:16:48;;;;;;;5.57;3.95;;;0.10;60.50;;;;;;5021832;28;20112;-82
2022/03/12 06:19:21;;;;;;;7.70;4.63;;;0.10;60.40;;;;;;5039105;28;20013;-82
2022/03/12 06:21:48;;;;;;;6.25;3.88;;;0.10;60.30;;;;;;5028441;28;20029;-80
2022/03/12 06:24:15;;;;;;;7.75;4.47;;;0.20;60.70;;;;;;5020385;28;20036;-80
2022/03/12 06:26:43;;;;;;;10.25;4.43;;;0.40;60.40;;;;;;5037894;28;20394;-81
2022/03/12 06:29:13;;;;;;;6.55;4.13;;;0.50;60.30;;;;;;5038950;28;20045;-82
2022/03/12 06:31:40;;;;;;;7.68;4.60;;;0.70;60.20;;;;;;5033202;28;20041;-82
2022/03/12 06:34:09;;;;;;;6.57;3.70;;;0.70;59.70;;;;;;5037459;28;20026;-81
2022/03/12 06:36:35;;;;;;;9.15;4.88;;;0.80;59.60;;;;;;5020540;28;20041;-81
2022/03/12 06:39:01;;;;;;;8.50;4.43;;;0.90;59.40;;;;;;5036578;28;20030;-81
2022/03/12 06:41:28;;;;;;;6.88;4.18;;;0.90;59.30;;;;;;5039472;28;20022;-81
2022/03/12 06:43:55;;;;;;;11.48;5.07;;;1.00;59.30;;;;;;5032502;28;20083;-80
2022/03/12 06:46:21;;;;;;;11.40;5.47;;;1.00;59.00;;;;;;5020581;28;20056;-80
2022/03/12 06:48:48;;;;;;;8.63;5.10;;;1.00;59.00;;;;;;5026117;28;20049;-82
2022/03/12 06:51:14;;;;;;;7.95;4.78;;;1.00;59.20;;;;;;5045187;28;20103;-79
2022/03/12 06:53:39;;;;;;;12.68;5.30;;;1.10;59.10;;;;;;5039348;28;20359;-80
2022/03/12 06:56:07;;;;;;;7.03;4.68;;;1.20;58.90;;;;;;5040321;28;20028;-82
2022/03/12 06:58:33;;;;;;;7.28;4.75;;;1.30;58.90;;;;;;5024881;28;20021;-80
2022/03/12 07:00:59;;;;;;;11.02;5.00;;;1.40;58.90;;;;;;5049551;28;20025;-81
2022/03/12 07:03:24;;;;;;;11.85;5.28;;;1.40;58.60;;;;;;5021663;28;20478;-82
2022/03/12 07:05:51;;;;;;;9.18;5.15;;;1.40;58.50;;;;;;5037929;28;20025;-84
2022/03/12 07:08:19;;;;;;;10.35;5.90;;;1.50;58.60;;;;;;5020363;28;20455;-79
2022/03/12 07:10:49;;;;;;;8.30;5.18;;;1.50;58.60;;;;;;5037457;28;20470;-82
2022/03/12 07:13:16;;;;;;;8.90;5.22;;;1.60;58.80;;;;;;5018319;28;20026;-81
2022/03/12 07:15:43;;;;;;;11.73;5.88;;;1.80;58.60;;;;;;5037096;28;20029;-80
2022/03/12 07:18:09;;;;;;;12.15;6.55;;;1.90;58.30;;;;;;5040161;28;20045;-81
2022/03/12 07:20:34;;;;;;;10.63;5.72;;;2.00;58.00;;;;;;5040009;28;20028;-80
2022/03/12 07:23:00;;;;;;;13.13;6.38;;;2.10;57.90;;;;;;5033662;28;20109;-81
2022/03/12 07:25:27;;;;;;;11.07;6.47;;;2.20;57.70;;;;;;5040026;28;20048;-81
2022/03/12 07:27:54;;;;;;;11.57;5.97;;;2.30;57.60;;;;;;5020576;28;20026;-80
2022/03/12 07:30:21;;;;;;;10.35;6.13;;;2.40;57.40;;;;;;5026254;28;20036;-83
2022/03/12 07:32:48;;;;;;;9.10;5.43;;;2.50;57.40;;;;;;5008894;28;20030;-81
2022/03/12 07:35:16;;;;;;;9.77;5.60;;;2.60;57.30;;;;;;5017383;28;20105;-79
2022/03/12 07:37:43;;;;;;;9.68;5.28;;;2.70;57.00;;;;;;5019371;28;20098;-82
2022/03/12 07:40:12;;;;;;;13.93;6.07;;;2.80;56.90;;;;;;5023552;28;20025;-84
2022/03/12 07:42:38;;;;;;;9.52;5.93;;;2.90;56.60;;;;;;5033194;28;20029;-84
2022/03/12 07:45:07;;;;;;;8.45;5.63;;;3.00;56.40;;;;;;5040021;28;20041;-83
2022/03/12 07:47:33;;;;;;;8.82;5.38;;;3.10;56.20;;;;;;5057702;28;20017;-83
2022/03/12 07:49:59;;;;;;;7.50;4.70;;;3.20;56.20;;;;;;5039827;28;20033;-82
2022/03/12 07:52:25;;;;;;;12.88;5.68;;;3.40;55.90;;;;;;5057363;28;20033;-82
2022/03/12 07:54:51;;;;;;;9.80;6.10;;;3.50;55.50;;;;;;5057492;28;20044;-83
2022/03/12 07:57:17;;;;;;;10.82;6.32;;;3.70;55.20;;;;;;5055310;28;20026;-83
2022/03/12 07:59:44;;;;;;;12.68;6.65;;;3.90;55.00;;;;;;5027582;28;20036;-83
2022/03/12 08:02:10;;;;;;;12.40;6.68;;;4.10;54.50;;;;;;5029496;28;20096;-83
2022/03/12 08:04:37;;;;;;;10.18;5.97;;;4.20;54.10;;;;;;5029986;28;20036;-83
2022/03/12 08:07:04;;;;;;;14.27;7.45;;;4.40;54.00;;;;;;5047989;28;20248;-83
2022/03/12 08:09:33;;;;;;;11.55;6.95;;;4.50;53.60;;;;;;5046190;28;20017;-84
2022/03/12 08:12:00;;;;;;;11.25;6.65;;;4.70;53.40;;;;;;5047752;28;20077;-85
2022/03/12 08:14:27;;;;;;;9.20;5.55;;;4.90;53.80;;;;;;5030448;28;20052;-82
2022/03/12 08:16:54;;;;;;;12.15;7.07;;;5.10;53.10;;;;;;5034605;28;20036;-83
2022/03/12 08:19:20;;;;;;;9.23;5.78;;;5.30;52.80;;;;;;5046247;28;20045;-82
2022/03/12 08:21:51;;;;;;;7.88;4.75;;;5.50;52.40;;;;;;5053351;28;20470;-84
2022/03/12 08:24:17;;;;;;;9.85;5.57;;;5.70;52.20;;;;;;5052216;28;20052;-84
2022/03/12 08:26:45;;;;;;;9.23;5.28;;;6.00;51.70;;;;;;5044643;28;20054;-84
2022/03/12 08:29:11;;;;;;;10.40;5.65;;;6.20;51.10;;;;;;5051632;28;20032;-83
2022/03/12 08:31:39;;;;;;;15.23;6.88;;;6.30;50.50;;;;;;5056288;28;20072;-84
2022/03/12 08:34:08;;;;;;;11.35;7.18;;;6.50;50.40;;;;;;5052005;28;20100;-81
2022/03/12 08:36:34;;;;;;;11.98;6.75;;;6.60;49.90;;;;;;5037042;28;20029;-85
2022/03/12 08:39:03;;;;;;;12.75;7.72;;;6.90;50.00;;;;;;5038652;28;20093;-82
2022/03/12 08:41:29;;;;;;;10.85;6.10;;;7.20;49.70;;;;;;5048872;28;20030;-82
2022/03/12 08:43:55;;;;;;;10.95;6.88;;;7.30;49.00;;;;;;5030549;28;20022;-82
2022/03/12 08:46:21;;;;;;;11.93;7.20;;;7.50;48.70;;;;;;5030944;28;20036;-80
2022/03/12 08:48:47;;;;;;;11.98;6.60;;;7.70;48.50;;;;;;5030529;28;20032;-81
2022/03/12 08:51:13;;;;;;;10.10;6.68;;;8.00;48.10;;;;;;5026634;28;20026;-80
2022/03/12 08:53:39;;;;;;;10.43;6.50;;;8.20;47.40;;;;;;5028014;28;20029;-78
2022/03/12 08:56:05;;;;;;;11.00;6.80;;;8.50;47.10;;;;;;5048310;28;20017;-81
2022/03/12 08:58:32;;;;;;;13.13;7.97;;;8.60;46.60;;;;;;5046556;28;20129;-80
2022/03/12 09:00:59;;;;;;;15.50;8.93;;;8.50;46.00;;;;;;5029501;28;20253;-79
2022/03/12 09:03:25;;;;;;;18.27;9.38;;;8.30;46.10;;;;;;5035799;28;20045;-80
2022/03/12 09:05:54;;;;;;;19.02;9.32;;;8.40;46.30;;;;;;5022666;28;20029;-79
2022/03/12 09:08:20;;;;;;;18.63;9.77;;;8.30;46.30;;;;;;5006795;28;20045;-82
2022/03/12 09:10:46;;;;;;;19.80;11.07;;;8.20;46.50;;;;;;5028967;28;20030;-81
2022/03/12 09:13:18;;;;;;;20.08;9.98;;;8.30;46.20;;;;;;5028313;28;20025;-84
2022/03/12 09:15:44;;;;;;;18.03;10.13;;;8.50;46.30;;;;;;5045061;28;20091;-80
2022/03/12 09:18:10;;;;;;;20.00;10.57;;;8.50;46.10;;;;;;5047010;28;20271;-81
2022/03/12 09:20:46;;;;;;;18.85;10.00;;;8.70;45.90;;;;;;5042931;28;20360;-79
2022/03/12 09:23:20;;;;;;;19.13;10.48;;;9.00;45.70;;;;;;5027681;28;20076;-79
2022/03/12 09:25:47;;;;;;;13.20;8.40;;;9.00;45.40;;;;;;5046842;28;20215;-79
2022/03/12 09:28:14;;;;;;;16.77;9.27;;;9.30;45.50;;;;;;5046491;28;20085;-84
2022/03/12 09:30:40;;;;;;;14.20;8.73;;;9.60;45.00;;;;;;5035531;28;20060;-85
2022/03/12 09:33:07;;;;;;;14.88;8.05;;;9.80;44.60;;;;;;5020666;28;20042;-81
2022/03/12 09:35:34;;;;;;;15.50;9.52;;;10.10;44.10;;;;;;5024549;28;20042;-80
2022/03/12 09:38:01;;;;;;;16.75;9.80;;;10.20;43.70;;;;;;5007991;28;20034;-81
2022/03/12 09:40:29;;;;;;;16.65;9.65;;;10.00;42.80;;;;;;5026639;28;20014;-80
2022/03/12 09:42:55;;;;;;;14.75;9.07;;;9.80;43.10;;;;;;5037923;28;20025;-82
2022/03/12 09:45:22;;;;;;;15.40;9.63;;;9.90;43.30;;;;;;5044193;28;20036;-81
2022/03/12 09:47:48;;;;;;;13.98;9.82;;;10.00;43.00;;;;;;5047188;28;20025;-79
2022/03/12 09:50:14;;;;;;;13.98;9.23;;;10.00;42.60;;;;;;5029996;28;20069;-81
2022/03/12 09:52:41;;;;;;;13.93;8.85;;;10.10;42.60;;;;;;5026477;28;20390;-80
2022/03/12 09:55:07;;;;;;;18.25;10.50;;;10.20;42.90;;;;;;5026538;28;20096;-80
2022/03/12 09:57:34;;;;;;;18.83;9.90;;;10.00;42.90;;;;;;5050741;28;20025;-82
2022/03/12 10:00:00;;;;;;;13.55;9.23;;;10.00;43.10;;;;;;5050287;28;20080;-81
2022/03/12 10:02:26;;;;;;;15.13;8.75;;;10.00;43.20;;;;;;5045232;28;20121;-80
2022/03/12 10:04:53;;;;;;;16.95;9.38;;;10.10;43.40;;;;;;5028234;28;20045;-82
2022/03/12 10:07:19;;;;;;;14.25;9.80;;;10.30;43.10;;;;;;5029690;28;20025;-80
2022/03/12 10:09:45;;;;;;;12.90;9.05;;;10.40;43.20;;;;;;5043890;28;20025;-81
2022/03/12 10:12:11;;;;;;;14.65;9.23;;;10.70;42.90;;;;;;5028526;28;20048;-80
2022/03/12 10:14:37;;;;;;;16.35;9.48;;;10.70;42.30;;;;;;5045080;28;20025;-80
2022/03/12 10:17:03;;;;;;;15.85;9.85;;;10.70;42.40;;;;;;5044931;28;20072;-78
2022/03/12 10:19:30;;;;;;;16.58;10.38;;;10.60;42.10;;;;;;5026772;28;20024;-81
2022/03/12 10:21:57;;;;;;;14.13;9.63;;;10.50;42.50;;;;;;5045413;28;20501;-80
2022/03/12 10:24:24;;;;;;;18.70;9.75;;;10.50;43.30;;;;;;5042839;28;20037;-80
2022/03/12 10:26:50;;;;;;;15.63;8.95;;;10.70;42.70;;;;;;5028026;28;20037;-83
2022/03/12 10:29:16;;;;;;;19.50;10.48;;;10.60;42.90;;;;;;5028546;28;20044;-83
2022/03/12 10:31:42;;;;;;;19.88;10.63;;;10.50;43.00;;;;;;5040622;28;20022;-82
2022/03/12 10:34:17;;;;;;;13.40;8.90;;;10.50;43.70;;;;;;5026402;28;20053;-79
2022/03/12 10:36:44;;;;;;;15.48;9.52;;;10.70;43.90;;;;;;5027246;28;20033;-80
2022/03/12 10:39:11;;;;;;;17.10;9.73;;;11.00;42.60;;;;;;5044808;28;20456;-80
2022/03/12 10:41:37;;;;;;;17.13;9.57;;;10.90;42.30;;;;;;5046284;28;20038;-84
2022/03/12 10:44:04;;;;;;;20.17;10.07;;;10.50;43.10;;;;;;5054692;28;20014;-85
2022/03/12 10:46:30;;;;;;;18.08;9.93;;;10.40;43.50;;;;;;5018826;28;20026;-80
2022/03/12 10:48:58;;;;;;;13.90;9.25;;;10.50;43.40;;;;;;5011970;28;20125;-80
2022/03/12 10:51:34;;;;;;;17.65;10.23;;;10.40;43.50;;;;;;5011616;28;20033;-79
2022/03/12 10:54:08;;;;;;;17.67;9.45;;;10.50;43.70;;;;;;5042958;28;20017;-78
2022/03/12 10:56:43;;;;;;;16.38;10.02;;;10.60;43.70;;;;;;5042244;28;20088;-79
2022/03/12 10:59:19;;;;;;;17.42;10.40;;;10.70;43.00;;;;;;5050395;28;20031;-78
2022/03/12 11:01:58;;;;;;;21.33;10.90;;;10.90;42.60;;;;;;5038582;28;20041;-80
2022/03/12 11:04:30;;;;;;;16.85;9.95;;;10.90;42.90;;;;;;5055536;28;20033;-85
2022/03/12 11:07:01;;;;;;;18.15;10.80;;;10.80;43.10;;;;;;5054930;28;20029;-80
2022/03/12 11:09:36;;;;;;;17.75;10.38;;;10.90;43.40;;;;;;5048575;28;20446;-81
2022/03/12 11:12:04;;;;;;;14.52;9.90;;;10.90;43.20;;;;;;5031477;28;20060;-79
2022/03/12 11:14:31;;;;;;;18.25;11.02;;;11.00;43.40;;;;;;5047198;28;20026;-79
2022/03/12 11:16:58;;;;;;;17.00;10.63;;;11.10;42.70;;;;;;5047633;28;20021;-81
2022/03/12 11:19:40;;;;;;;16.48;9.85;;;11.10;42.70;;;;;;5030077;28;20045;-80
2022/03/12 11:22:11;;;;;;;;;;;11.20;42.90;;;;;;5031694;28;20026;-81
2022/03/12 11:24:48;;;;;;;21.17;11.38;;;11.40;42.70;;;;;;5031204;28;19935;-80
2022/03/12 11:27:35;;;;;;;20.42;11.27;;;11.60;42.30;;;;;;5030932;28;20083;-81
2022/03/12 11:30:08;;;;;;;16.63;10.98;;;11.60;42.10;;;;;;5024451;28;20120;-80
2022/03/12 11:32:35;;;;;;;21.60;11.73;;;11.60;42.40;;;;;;5019126;28;20056;-79
2022/03/12 11:35:15;;;;;;;15.18;9.77;;;11.60;42.30;;;;;;5031766;28;20433;-81
2022/03/12 11:37:42;;;;;;;16.33;10.80;;;11.90;42.60;;;;;;5033510;28;20018;-83
2022/03/12 11:40:18;;;;;;;19.35;11.38;;;12.10;41.90;;;;;;5026917;28;20445;-83
2022/03/12 11:42:45;;;;;;;18.50;12.63;;;12.10;41.80;;;;;;5025465;28;20025;-82
2022/03/12 11:45:14;;;;;;;15.80;10.07;;;12.10;41.50;;;;;;5032368;28;20033;-78
2022/03/12 11:47:42;;;;;;;16.33;10.48;;;12.10;42.10;;;;;;5014144;28;20517;-81
2022/03/12 11:50:15;;;;;;;19.25;11.75;;;12.30;41.80;;;;;;5033256;28;20055;-80
2022/03/12 11:52:45;;;;;;;18.95;11.48;;;12.30;41.40;;;;;;5044195;28;20021;-84
2022/03/12 11:55:22;;;;;;;20.50;12.38;;;12.30;41.40;;;;;;5018173;28;20006;-83
2022/03/12 11:57:49;;;;;;;20.00;12.30;;;12.20;41.50;;;;;;5032237;28;20342;-79
2022/03/12 12:00:27;;;;;;;27.00;12.77;;;12.30;41.50;;;;;;5016209;28;20034;-82
2022/03/12 12:02:53;;;;;;;22.77;12.80;;;12.40;41.20;;;;;;5043187;28;20049;-83
2022/03/12 12:05:22;;;;;;;18.08;11.57;;;12.40;41.60;;;;;;5041926;28;20033;-83
2022/03/12 12:07:48;;;;;;;18.02;12.13;;;12.40;41.70;;;;;;5034519;28;20022;-81
2022/03/12 12:10:31;;;;;;;22.83;13.75;;;12.70;41.50;;;;;;5013012;28;20286;-82
2022/03/12 12:12:57;;;;;;;23.40;13.10;;;12.70;40.70;;;;;;5025499;28;20036;-78
2022/03/12 12:15:29;;;;;;;21.33;12.98;;;12.70;41.00;;;;;;5005412;28;20030;-79
2022/03/12 12:17:55;;;;;;;21.73;12.70;;;12.80;41.30;;;;;;5007961;28;20018;-79
2022/03/12 12:20:22;;;;;;;22.70;12.82;;;12.90;40.80;;;;;;5024667;28;20073;-80
2022/03/12 12:22:50;;;;;;;27.52;13.75;;;12.90;40.40;;;;;;5037056;28;20041;-79
2022/03/12 12:25:17;;;;;;;23.63;13.68;;;12.70;40.80;;;;;;5026899;28;20022;-82
2022/03/12 12:27:44;;;;;;;24.05;14.00;;;12.60;40.90;;;;;;5026684;28;20067;-83
2022/03/12 12:30:15;;;;;;;24.98;14.70;;;12.70;41.10;;;;;;5008545;28;20375;-80
2022/03/12 12:32:47;;;;;;;24.45;14.68;;;12.90;40.60;;;;;;5045569;28;20026;-79
2022/03/12 12:35:21;;;;;;;24.05;13.73;;;13.10;40.20;;;;;;5032578;28;20029;-79
2022/03/12 12:37:48;;;;;;;19.98;13.10;;;13.20;40.00;;;;;;5029031;28;20021;-78
2022/03/12 12:40:38;;;;;;;21.92;13.18;;;13.30;40.10;;;;;;5041634;28;20619;-79
2022/03/12 12:43:09;;;;;;;23.05;12.80;;;13.40;40.20;;;;;;5043474;28;20025;-80
2022/03/12 12:45:58;;;;;;;22.60;14.53;;;13.60;40.10;;;;;;5028575;28;20045;-80
2022/03/12 12:48:50;;;;;;;20.13;13.93;;;13.60;39.20;;;;;;5036823;28;20048;-83